Time;durP1;ratioP1;P1;durP2;ratioP2;P2;SDS_P1;SDS_P2;PMS_P1;PMS_P2;Temp;Humidity;BMP_temperature;BMP_pressure;BME280_temperature;BME280_humidity;BME280_pressure;Samples;Min_cycle;Max_cycle;Signal;HPM_P1;HPM_P2
2022/09/16 00:04:56;;;;;;;7.22;2.03;;;;;;;;;;10362713;28;20029;-75
2022/09/16 00:09:56;;;;;;;8.20;2.22;;;;;;;;;;10345932;28;20026;-74
2022/09/16 00:14:57;;;;;;;4.90;2.00;;;;;;;;;;10346114;28;20466;-74
2022/09/16 00:19:57;;;;;;;15.93;2.73;;;;;;;;;;10362218;28;20017;-79
2022/09/16 00:24:57;;;;;;;14.05;2.90;;;;;;;;;;10361910;28;20550;-77
2022/09/16 00:29:58;;;;;;;6.15;2.53;;;;;;;;;;10363613;28;20029;-76
2022/09/16 00:34:58;;;;;;;4.23;2.00;;;;;;;;;;10363846;28;20062;-73
2022/09/16 00:39:58;;;;;;;10.17;1.97;;;;;;;;;;10345599;28;20100;-74
2022/09/16 00:45:01;;;;;;;14.98;2.13;;;;;;;;;;10345949;28;20037;-74
2022/09/16 00:50:05;;;;;;;20.13;3.17;;;;;;;;;;10362079;28;20472;-78
2022/09/16 00:55:07;;;;;;;8.95;2.33;;;;;;;;;;10362251;28;20026;-80
2022/09/16 01:00:10;;;;;;;6.28;2.40;;;;;;;;;;10361282;28;20412;-77
2022/09/16 01:05:16;;;;;;;13.45;2.67;;;;;;;;;;10367879;28;20025;-74
2022/09/16 01:10:20;;;;;;;8.13;1.88;;;;;;;;;;10369051;28;20056;-72
2022/09/16 01:15:22;;;;;;;8.63;2.15;;;;;;;;;;10370540;28;20415;-77
2022/09/16 01:20:34;;;;;;;6.63;1.95;;;;;;;;;;10368323;28;20038;-73
2022/09/16 01:25:34;;;;;;;11.77;1.90;;;;;;;;;;10369837;28;20225;-72
2022/09/16 01:30:47;;;;;;;7.63;2.47;;;;;;;;;;10367727;28;20323;-75
2022/09/16 01:35:53;;;;;;;5.72;1.60;;;;;;;;;;10352403;28;20081;-75
2022/09/16 01:41:06;;;;;;;5.05;1.52;;;;;;;;;;10367522;28;20531;-73
2022/09/16 01:46:16;;;;;;;6.28;2.22;;;;;;;;;;10351302;28;20030;-74
2022/09/16 01:51:22;;;;;;;10.85;2.67;;;;;;;;;;10366954;28;20021;-73
2022/09/16 01:56:25;;;;;;;10.40;1.67;;;;;;;;;;10351095;28;20053;-78
2022/09/16 02:01:38;;;;;;;9.27;1.85;;;;;;;;;;10350874;28;20032;-73
2022/09/16 02:06:39;;;;;;;7.47;1.90;;;;;;;;;;10366687;28;20030;-74
2022/09/16 02:11:40;;;;;;;5.85;1.92;;;;;;;;;;10366745;28;20026;-75
2022/09/16 02:16:52;;;;;;;13.77;2.05;;;;;;;;;;10349296;28;20023;-75
2022/09/16 02:21:54;;;;;;;13.75;1.80;;;;;;;;;;10349509;28;20500;-74
2022/09/16 02:26:58;;;;;;;4.88;1.70;;;;;;;;;;10349869;28;20108;-75
2022/09/16 02:32:00;;;;;;;7.28;1.83;;;;;;;;;;10365776;28;20045;-74
2022/09/16 02:37:05;;;;;;;11.65;2.90;;;;;;;;;;10349440;28;20058;-73
2022/09/16 02:42:05;;;;;;;9.15;2.78;;;;;;;;;;10365506;28;20432;-74
2022/09/16 02:47:06;;;;;;;6.45;1.52;;;;;;;;;;10349527;28;20030;-75
2022/09/16 02:52:12;;;;;;;5.88;2.13;;;;;;;;;;10348189;28;20116;-75
2022/09/16 02:57:13;;;;;;;16.98;2.47;;;;;;;;;;10349122;28;20037;-76
2022/09/16 03:02:13;;;;;;;13.40;2.45;;;;;;;;;;10348540;28;20025;-73
2022/09/16 03:07:14;;;;;;;12.45;2.38;;;;;;;;;;10348265;28;20025;-74
2022/09/16 03:12:26;;;;;;;5.38;1.80;;;;;;;;;;10369501;28;20117;-73
2022/09/16 03:17:45;;;;;;;6.60;2.58;;;;;;;;;;10347825;28;20103;-73
2022/09/16 03:22:46;;;;;;;10.40;4.97;;;;;;;;;;10347474;28;20025;-73
2022/09/16 03:27:46;;;;;;;4.57;1.83;;;;;;;;;;10347419;28;20030;-75
2022/09/16 03:32:55;;;;;;;7.10;2.17;;;;;;;;;;10346865;28;20190;-74
2022/09/16 03:37:57;;;;;;;7.28;2.30;;;;;;;;;;10363406;28;20116;-74
2022/09/16 03:42:57;;;;;;;9.48;2.40;;;;;;;;;;10344770;28;20042;-76
2022/09/16 03:47:57;;;;;;;10.50;2.72;;;;;;;;;;10346533;28;20121;-78
2022/09/16 03:52:58;;;;;;;12.00;3.40;;;;;;;;;;10361978;28;20415;-76
2022/09/16 03:57:58;;;;;;;11.45;2.33;;;;;;;;;;10345791;28;20043;-75
2022/09/16 04:02:59;;;;;;;18.67;2.80;;;;;;;;;;10363718;28;20180;-75
2022/09/16 04:07:59;;;;;;;16.80;2.35;;;;;;;;;;10363313;28;20022;-78
2022/09/16 04:12:59;;;;;;;14.90;3.17;;;;;;;;;;10361973;28;20018;-74
2022/09/16 04:17:59;;;;;;;13.05;2.60;;;;;;;;;;10344744;28;20057;-74
2022/09/16 04:23:00;;;;;;;11.33;3.50;;;;;;;;;;10362905;28;20076;-74
2022/09/16 04:28:00;;;;;;;7.57;3.17;;;;;;;;;;10336799;28;20480;-74
2022/09/16 04:33:00;;;;;;;14.18;3.00;;;;;;;;;;10360586;28;20018;-73
2022/09/16 04:38:01;;;;;;;8.82;3.63;;;;;;;;;;10347536;28;20038;-77
2022/09/16 04:43:01;;;;;;;17.48;2.30;;;;;;;;;;10370046;28;20033;-80
2022/09/16 04:48:01;;;;;;;25.48;3.58;;;;;;;;;;10368485;28;20076;-75
2022/09/16 04:53:01;;;;;;;11.60;3.50;;;;;;;;;;10368688;28;20032;-73
2022/09/16 04:58:02;;;;;;;11.88;3.35;;;;;;;;;;10350781;28;20037;-73
2022/09/16 05:03:02;;;;;;;10.70;2.80;;;;;;;;;;10350848;28;20178;-73
2022/09/16 05:08:02;;;;;;;14.00;4.32;;;;;;;;;;10351214;28;20487;-77
2022/09/16 05:13:02;;;;;;;11.55;3.20;;;;;;;;;;10369573;28;20022;-74
2022/09/16 05:18:03;;;;;;;14.50;2.75;;;;;;;;;;10367015;28;20117;-74
2022/09/16 05:23:03;;;;;;;12.00;2.42;;;;;;;;;;10367881;28;20034;-74
2022/09/16 05:28:03;;;;;;;16.37;2.93;;;;;;;;;;10367073;28;20507;-74
2022/09/16 05:33:04;;;;;;;14.93;2.95;;;;;;;;;;10351363;28;20277;-74
2022/09/16 05:38:04;;;;;;;14.63;3.20;;;;;;;;;;10364441;28;20022;-74
2022/09/16 05:43:04;;;;;;;9.38;2.40;;;;;;;;;;10347324;28;20022;-74
2022/09/16 05:48:04;;;;;;;12.02;2.28;;;;;;;;;;10364521;28;20037;-74
2022/09/16 05:53:04;;;;;;;14.38;2.92;;;;;;;;;;10366426;28;20030;-73
2022/09/16 05:58:05;;;;;;;19.90;3.28;;;;;;;;;;10350279;28;20022;-73
2022/09/16 06:03:05;;;;;;;15.20;2.58;;;;;;;;;;10350906;28;20025;-74
2022/09/16 06:08:05;;;;;;;11.40;2.95;;;;;;;;;;10366871;28;20037;-75
2022/09/16 06:13:05;;;;;;;11.43;4.43;;;;;;;;;;10358469;28;20057;-73
2022/09/16 06:18:06;;;;;;;7.60;2.35;;;;;;;;;;10350099;28;20414;-73
2022/09/16 06:23:06;;;;;;;13.38;2.15;;;;;;;;;;10367656;28;20034;-72
2022/09/16 06:28:08;;;;;;;16.17;2.83;;;;;;;;;;10365103;28;20041;-76
2022/09/16 06:33:10;;;;;;;9.05;1.70;;;;;;;;;;10312789;28;20033;-73
2022/09/16 06:38:13;;;;;;;12.13;2.20;;;;;;;;;;10365720;28;20430;-75
2022/09/16 06:43:13;;;;;;;9.80;2.30;;;;;;;;;;10350720;28;20030;-73
2022/09/16 06:48:13;;;;;;;11.13;2.65;;;;;;;;;;10365068;28;20025;-77
2022/09/16 06:53:14;;;;;;;11.88;2.08;;;;;;;;;;10365637;28;20057;-73
2022/09/16 06:58:14;;;;;;;7.30;1.90;;;;;;;;;;10349043;28;20075;-73
2022/09/16 07:03:14;;;;;;;12.88;1.85;;;;;;;;;;10365795;28;20414;-72
2022/09/16 07:08:15;;;;;;;6.63;1.65;;;;;;;;;;10364612;28;20097;-74
2022/09/16 07:13:15;;;;;;;8.20;1.80;;;;;;;;;;10347400;28;20108;-74
2022/09/16 07:18:15;;;;;;;14.27;1.83;;;;;;;;;;10348533;28;20100;-73
2022/09/16 07:23:16;;;;;;;8.98;2.60;;;;;;;;;;10346976;28;20061;-76
2022/09/16 07:28:16;;;;;;;11.80;2.00;;;;;;;;;;10363590;28;20037;-77
2022/09/16 07:33:16;;;;;;;11.98;1.52;;;;;;;;;;10326279;28;20547;-73
2022/09/16 07:38:16;;;;;;;10.50;1.83;;;;;;;;;;10347409;28;20084;-73
2022/09/16 07:43:16;;;;;;;10.35;1.35;;;;;;;;;;10347041;28;20029;-73
2022/09/16 07:48:17;;;;;;;9.40;1.33;;;;;;;;;;10364386;28;20037;-73
2022/09/16 07:53:17;;;;;;;6.68;1.63;;;;;;;;;;10346802;28;20014;-73
2022/09/16 07:58:18;;;;;;;6.05;1.50;;;;;;;;;;10346846;28;20017;-74
2022/09/16 08:03:18;;;;;;;10.02;1.75;;;;;;;;;;10346174;28;20049;-78
2022/09/16 08:08:18;;;;;;;12.13;1.98;;;;;;;;;;10346743;28;20010;-78
2022/09/16 08:13:18;;;;;;;8.90;1.98;;;;;;;;;;10349756;28;20077;-78
2022/09/16 08:18:19;;;;;;;9.50;1.90;;;;;;;;;;10355114;28;20084;-76
2022/09/16 08:23:19;;;;;;;11.45;2.20;;;;;;;;;;10370863;28;20033;-78
2022/09/16 08:28:19;;;;;;;10.38;1.70;;;;;;;;;;10370781;28;20010;-74
2022/09/16 08:33:22;;;;;;;11.23;2.08;;;;;;;;;;10371381;28;20049;-75
2022/09/16 08:38:22;;;;;;;7.70;2.10;;;;;;;;;;10354432;28;20030;-73
2022/09/16 08:43:27;;;;;;;9.57;2.22;;;;;;;;;;10369751;28;20447;-73
2022/09/16 08:48:42;;;;;;;9.45;1.90;;;;;;;;;;10353263;28;20128;-73
2022/09/16 08:53:45;;;;;;;14.20;3.03;;;;;;;;;;10355313;28;20444;-73
2022/09/16 08:58:48;;;;;;;12.15;2.05;;;;;;;;;;10352509;28;20033;-76
2022/09/16 09:03:48;;;;;;;15.75;1.98;;;;;;;;;;10368752;28;20076;-75
2022/09/16 09:08:53;;;;;;;16.63;3.20;;;;;;;;;;10369452;28;20029;-76
2022/09/16 09:14:09;;;;;;;17.02;2.25;;;;;;;;;;10352453;28;20022;-73
2022/09/16 09:19:19;;;;;;;16.35;3.03;;;;;;;;;;10352747;28;20033;-73
2022/09/16 09:24:26;;;;;;;15.25;2.38;;;;;;;;;;10351390;28;20033;-76
2022/09/16 09:29:26;;;;;;;;;;;;;;;;;;10368735;28;20028;-72
2022/09/16 09:34:52;;;;;;;21.13;3.60;;;;;;;;;;10777527;22;20016;-77
2022/09/16 09:39:59;;;;;;;27.00;11.10;;;;;;;;;;10337063;28;20044;-75
2022/09/16 09:45:13;;;;;;;18.00;2.50;;;;;;;;;;10368149;28;20076;-76
2022/09/16 09:50:17;;;;;;;15.50;2.85;;;;;;;;;;10350973;28;20057;-74
2022/09/16 09:55:19;;;;;;;15.80;3.35;;;;;;;;;;10350461;28;20018;-73
2022/09/16 10:00:20;;;;;;;10.27;3.15;;;;;;;;;;10368215;28;20535;-72
2022/09/16 10:05:22;;;;;;;13.23;2.95;;;;;;;;;;10363352;28;20133;-72
2022/09/16 10:10:23;;;;;;;20.55;3.08;;;;;;;;;;10350254;28;20026;-72
2022/09/16 10:15:27;;;;;;;28.92;5.20;;;;;;;;;;10349626;28;20492;-72
2022/09/16 10:20:30;;;;;;;11.18;3.03;;;;;;;;;;10349502;28;20456;-79
2022/09/16 10:25:31;;;;;;;13.73;3.28;;;;;;;;;;10349432;28;20049;-77
2022/09/16 10:30:42;;;;;;;20.85;3.83;;;;;;;;;;10367216;28;20032;-79
2022/09/16 10:35:50;;;;;;;13.85;3.10;;;;;;;;;;10365498;28;20479;-74
2022/09/16 10:41:00;;;;;;;12.35;2.40;;;;;;;;;;10349216;28;20036;-77
2022/09/16 10:46:01;;;;;;;8.98;1.70;;;;;;;;;;10366033;28;20006;-76
2022/09/16 10:51:04;;;;;;;9.88;1.95;;;;;;;;;;10348744;28;20028;-73
2022/09/16 11:01:26;;;;;;;3.50;1.77;;;;;;;;;;10333609;23;20074;-73
2022/09/16 11:06:35;;;;;;;7.03;1.58;;;;;;;;;;10267101;28;20102;-73
2022/09/16 11:11:47;;;;;;;5.88;1.40;;;;;;;;;;10251203;28;20019;-74
2022/09/16 11:16:57;;;;;;;11.80;3.20;;;;;;;;;;10284569;28;20026;-73
2022/09/16 11:22:12;;;;;;;3.50;0.70;;;;;;;;;;10270468;28;20035;-74
2022/09/16 11:27:31;;;;;;;1.08;0.60;;;;;;;;;;10271640;28;20037;-77
2022/09/16 11:32:37;;;;;;;2.72;0.47;;;;;;;;;;10267390;28;20030;-74
2022/09/16 11:37:41;;;;;;;5.10;0.40;;;;;;;;;;10266871;28;20142;-77
2022/09/16 11:42:48;;;;;;;5.15;0.98;;;;;;;;;;10245954;28;20142;-74
2022/09/16 11:48:07;;;;;;;5.57;0.50;;;;;;;;;;10256698;28;20019;-74
2022/09/16 11:53:26;;;;;;;1.30;0.55;;;;;;;;;;10250150;28;20031;-74
2022/09/16 11:58:27;;;;;;;6.38;1.30;;;;;;;;;;10248884;28;20095;-75
2022/09/16 12:03:41;;;;;;;9.27;1.42;;;;;;;;;;10255844;28;20523;-72
2022/09/16 12:08:47;;;;;;;3.25;1.00;;;;;;;;;;10254272;28;20026;-77
2022/09/16 12:13:54;;;;;;;5.75;0.90;;;;;;;;;;10236935;28;20428;-73
2022/09/16 12:19:00;;;;;;;11.50;1.63;;;;;;;;;;10244482;28;20062;-76
2022/09/16 12:24:04;;;;;;;2.17;1.08;;;;;;;;;;10255391;28;20117;-75
2022/09/16 12:29:15;;;;;;;6.43;1.20;;;;;;;;;;10254990;28;20082;-76
2022/09/16 12:34:21;;;;;;;5.80;1.05;;;;;;;;;;10256992;28;20497;-75
2022/09/16 12:39:21;;;;;;;4.28;1.42;;;;;;;;;;10254962;28;20034;-77
2022/09/16 12:44:24;;;;;;;8.27;1.67;;;;;;;;;;10250712;28;20034;-73
2022/09/16 12:49:40;;;;;;;8.23;1.95;;;;;;;;;;10258518;28;20408;-74
2022/09/16 12:54:59;;;;;;;8.65;2.38;;;;;;;;;;10253538;28;20060;-74
2022/09/16 13:00:08;;;;;;;5.32;1.92;;;;;;;;;;10263161;28;20085;-75
2022/09/16 13:05:11;;;;;;;12.23;1.63;;;;;;;;;;10253302;28;20087;-78
2022/09/16 13:10:16;;;;;;;13.82;2.40;;;;;;;;;;10272444;28;20382;-74
2022/09/16 13:15:23;;;;;;;4.03;1.60;;;;;;;;;;10271822;28;20178;-76
2022/09/16 13:20:32;;;;;;;6.65;1.73;;;;;;;;;;10264110;28;20127;-79
2022/09/16 13:25:45;;;;;;;8.43;1.88;;;;;;;;;;10264442;28;20101;-74
2022/09/16 13:30:45;;;;;;;6.45;2.17;;;;;;;;;;10264235;28;20038;-75
2022/09/16 13:35:48;;;;;;;9.50;2.85;;;;;;;;;;10261982;28;20030;-74
2022/09/16 13:40:52;;;;;;;6.15;2.38;;;;;;;;;;10254963;28;20122;-76
2022/09/16 13:46:00;;;;;;;11.98;3.15;;;;;;;;;;10260338;28;20031;-73
2022/09/16 13:51:05;;;;;;;4.30;2.53;;;;;;;;;;10254204;28;20424;-76
2022/09/16 13:56:23;;;;;;;8.68;2.90;;;;;;;;;;10254780;28;20043;-73
2022/09/16 14:01:47;;;;;;;10.63;3.38;;;;;;;;;;10254870;28;20079;-73
2022/09/16 14:06:53;;;;;;;9.07;2.40;;;;;;;;;;10249926;28;20038;-72
2022/09/16 14:12:13;;;;;;;9.50;2.33;;;;;;;;;;10256990;28;20497;-72
2022/09/16 14:17:22;;;;;;;9.02;2.13;;;;;;;;;;10271717;28;20109;-74
2022/09/16 14:22:25;;;;;;;3.58;2.10;;;;;;;;;;10274636;28;20019;-74
2022/09/16 14:27:25;;;;;;;5.80;2.67;;;;;;;;;;10261531;28;20053;-72
2022/09/16 14:32:28;;;;;;;9.75;2.92;;;;;;;;;;10256680;28;20031;-72
2022/09/16 14:37:29;;;;;;;8.52;2.90;;;;;;;;;;10259176;28;20278;-74
2022/09/16 14:42:30;;;;;;;8.60;2.95;;;;;;;;;;10249195;28;20186;-72
2022/09/16 14:47:32;;;;;;;8.13;2.37;;;;;;;;;;10255177;28;20483;-75
2022/09/16 14:52:34;;;;;;;6.38;2.10;;;;;;;;;;10250019;28;20274;-73
2022/09/16 14:57:35;;;;;;;7.63;2.08;;;;;;;;;;10256827;28;20133;-72
2022/09/16 15:02:39;;;;;;;5.78;2.40;;;;;;;;;;10254090;28;20078;-72
2022/09/16 15:07:40;;;;;;;8.40;2.72;;;;;;;;;;10246961;28;20039;-74
2022/09/16 15:12:48;;;;;;;9.52;3.60;;;;;;;;;;10255948;28;20073;-75
2022/09/16 15:17:48;;;;;;;;;;;;;;;;;;10497150;23;20047;-76
2022/09/16 15:22:49;;;;;;;5.88;2.70;;;;;;;;;;10254156;28;19918;-77
2022/09/16 15:27:49;;;;;;;7.93;3.27;;;;;;;;;;10254816;28;20394;-77
2022/09/16 15:32:49;;;;;;;8.67;2.67;;;;;;;;;;10239356;28;20420;-76
2022/09/16 15:37:50;;;;;;;8.17;2.47;;;;;;;;;;10235998;28;20118;-72
2022/09/16 15:43:01;;;;;;;12.52;3.00;;;;;;;;;;10235744;28;20031;-76
2022/09/16 15:48:10;;;;;;;9.85;3.33;;;;;;;;;;10227438;28;20023;-72
2022/09/16 15:53:13;;;;;;;7.18;2.42;;;;;;;;;;10233071;28;20031;-74
2022/09/16 15:58:13;;;;;;;13.32;2.90;;;;;;;;;;10235826;28;20031;-72
2022/09/16 16:03:19;;;;;;;5.82;2.33;;;;;;;;;;10230648;28;20442;-72
2022/09/16 16:08:39;;;;;;;7.97;2.03;;;;;;;;;;10227850;28;20844;-72
2022/09/16 16:13:39;;;;;;;11.48;2.85;;;;;;;;;;10236759;28;20050;-75
2022/09/16 16:18:41;;;;;;;9.25;2.97;;;;;;;;;;10256286;28;20066;-73
2022/09/16 16:23:41;;;;;;;11.80;2.33;;;;;;;;;;10242650;28;20116;-77
2022/09/16 16:28:42;;;;;;;7.23;2.60;;;;;;;;;;10250258;28;20143;-73
2022/09/16 16:33:43;;;;;;;5.68;2.40;;;;;;;;;;10243618;28;20820;-76
2022/09/16 16:38:45;;;;;;;15.45;3.40;;;;;;;;;;10254168;28;20031;-77
2022/09/16 16:43:45;;;;;;;8.13;3.00;;;;;;;;;;10235294;28;20028;-78
2022/09/16 16:48:46;;;;;;;18.83;3.28;;;;;;;;;;10237691;28;20027;-76
2022/09/16 16:53:48;;;;;;;5.78;2.40;;;;;;;;;;10240931;28;20041;-79
2022/09/16 16:58:48;;;;;;;9.80;4.88;;;;;;;;;;10242470;28;20089;-77
2022/09/16 17:03:49;;;;;;;7.22;3.60;;;;;;;;;;10240842;28;20031;-75
2022/09/16 17:08:49;;;;;;;12.85;3.10;;;;;;;;;;10249382;28;20023;-77
2022/09/16 17:13:50;;;;;;;8.25;2.67;;;;;;;;;;10263369;28;20537;-77
2022/09/16 17:18:51;;;;;;;6.95;2.60;;;;;;;;;;10246841;28;20086;-78
2022/09/16 17:23:52;;;;;;;8.75;3.83;;;;;;;;;;10239418;28;20038;-74
2022/09/16 17:28:53;;;;;;;7.13;2.00;;;;;;;;;;10255184;28;20425;-78
2022/09/16 17:34:04;;;;;;;6.82;2.40;;;;;;;;;;10245773;28;20279;-74
2022/09/16 17:39:05;;;;;;;8.60;2.50;;;;;;;;;;10228498;28;20027;-76
2022/09/16 17:44:06;;;;;;;14.02;2.50;;;;;;;;;;10230267;28;20031;-76
2022/09/16 17:49:10;;;;;;;5.85;1.73;;;;;;;;;;10250224;28;20280;-78
2022/09/16 17:54:10;;;;;;;4.97;2.00;;;;;;;;;;10246740;28;20026;-75
2022/09/16 17:59:11;;;;;;;4.47;2.63;;;;;;;;;;10229365;28;20035;-75
2022/09/16 18:04:12;;;;;;;9.73;2.25;;;;;;;;;;10229924;28;20069;-77
2022/09/16 18:09:13;;;;;;;5.93;2.57;;;;;;;;;;10239061;28;20478;-74
2022/09/16 18:14:13;;;;;;;7.25;2.38;;;;;;;;;;10253722;28;20038;-78
2022/09/16 18:19:14;;;;;;;8.98;3.00;;;;;;;;;;10220190;29;20063;-78
2022/09/16 18:24:14;;;;;;;2.92;2.15;;;;;;;;;;10218180;28;20387;-78
2022/09/16 18:29:14;;;;;;;6.30;2.53;;;;;;;;;;10210710;29;20405;-79
2022/09/16 18:34:15;;;;;;;6.70;3.50;;;;;;;;;;10226582;29;20218;-75
2022/09/16 18:39:15;;;;;;;7.63;2.80;;;;;;;;;;10224318;29;20102;-77
2022/09/16 18:44:19;;;;;;;7.95;2.30;;;;;;;;;;10206352;29;20023;-74
2022/09/16 18:49:25;;;;;;;10.07;3.47;;;;;;;;;;10212779;29;20035;-76
2022/09/16 18:54:27;;;;;;;6.85;2.95;;;;;;;;;;10218899;29;20027;-78
2022/09/16 18:59:29;;;;;;;13.02;3.38;;;;;;;;;;10222258;28;20790;-77
2022/09/16 19:04:30;;;;;;;7.60;2.92;;;;;;;;;;10230758;28;20260;-77
2022/09/16 19:09:30;;;;;;;8.82;3.08;;;;;;;;;;10206537;29;20520;-74
2022/09/16 19:14:31;;;;;;;5.27;2.40;;;;;;;;;;10206758;29;20130;-77
2022/09/16 19:19:32;;;;;;;8.07;2.35;;;;;;;;;;10207885;29;20893;-74
2022/09/16 19:24:32;;;;;;;4.68;2.20;;;;;;;;;;10224331;29;20046;-81
2022/09/16 19:29:32;;;;;;;10.40;2.53;;;;;;;;;;10215225;29;20479;-79
2022/09/16 19:34:32;;;;;;;12.27;5.18;;;;;;;;;;10213942;29;20031;-77
2022/09/16 19:39:33;;;;;;;9.85;3.10;;;;;;;;;;10214401;29;20185;-80
2022/09/16 19:44:33;;;;;;;5.60;2.40;;;;;;;;;;10211569;29;20030;-78
2022/09/16 19:49:34;;;;;;;9.27;3.28;;;;;;;;;;10211300;29;20090;-78
2022/09/16 19:54:34;;;;;;;6.75;2.75;;;;;;;;;;10213399;29;20458;-77
2022/09/16 19:59:34;;;;;;;4.32;2.08;;;;;;;;;;10213399;29;20058;-78
2022/09/16 20:04:34;;;;;;;11.70;2.72;;;;;;;;;;10195073;29;20031;-77
2022/09/16 20:09:35;;;;;;;9.20;2.80;;;;;;;;;;10202426;29;20036;-77
2022/09/16 20:14:35;;;;;;;6.28;2.10;;;;;;;;;;10199924;29;20063;-77
2022/09/16 20:19:35;;;;;;;6.20;1.70;;;;;;;;;;10215920;29;20512;-77
2022/09/16 20:24:36;;;;;;;6.30;2.75;;;;;;;;;;10209896;29;20059;-78
2022/09/16 20:29:36;;;;;;;8.55;2.05;;;;;;;;;;10210147;29;20494;-80
2022/09/16 20:34:36;;;;;;;5.47;2.30;;;;;;;;;;10210720;29;20071;-77
2022/09/16 20:39:37;;;;;;;8.15;2.65;;;;;;;;;;10209054;29;20114;-78
2022/09/16 20:44:37;;;;;;;5.65;2.70;;;;;;;;;;10200724;29;20020;-78
2022/09/16 20:49:37;;;;;;;6.28;2.20;;;;;;;;;;10212296;29;20083;-77
2022/09/16 20:54:37;;;;;;;6.70;2.22;;;;;;;;;;10208827;29;20027;-78
2022/09/16 20:59:38;;;;;;;4.13;2.38;;;;;;;;;;10198358;29;20055;-81
2022/09/16 21:04:38;;;;;;;5.10;2.00;;;;;;;;;;10208471;29;20453;-78
2022/09/16 21:09:39;;;;;;;8.70;2.38;;;;;;;;;;10197388;29;20019;-74
2022/09/16 21:14:39;;;;;;;9.25;2.97;;;;;;;;;;10199604;29;20526;-73
2022/09/16 21:19:39;;;;;;;6.70;2.42;;;;;;;;;;10217063;28;20070;-74
2022/09/16 21:24:41;;;;;;;6.30;2.25;;;;;;;;;;10226377;29;20118;-76
2022/09/16 21:29:42;;;;;;;9.02;3.85;;;;;;;;;;10212059;29;20028;-73
2022/09/16 21:34:42;;;;;;;6.30;3.20;;;;;;;;;;10208249;29;20058;-73
2022/09/16 21:39:42;;;;;;;12.73;3.50;;;;;;;;;;10195735;29;20031;-73
2022/09/16 21:44:42;;;;;;;7.90;3.15;;;;;;;;;;10170455;29;20040;-77
2022/09/16 21:49:43;;;;;;;6.87;2.90;;;;;;;;;;10201760;29;20117;-74
2022/09/16 21:54:43;;;;;;;7.55;3.30;;;;;;;;;;10208798;29;20379;-73
2022/09/16 21:59:43;;;;;;;5.55;3.17;;;;;;;;;;10186931;29;20144;-74
2022/09/16 22:04:43;;;;;;;9.23;3.92;;;;;;;;;;10168261;29;20111;-74
2022/09/16 22:09:44;;;;;;;11.57;3.92;;;;;;;;;;10171904;29;20646;-80
2022/09/16 22:14:44;;;;;;;9.65;3.75;;;;;;;;;;10182487;29;20123;-80
2022/09/16 22:19:46;;;;;;;8.77;4.27;;;;;;;;;;10184687;29;20059;-76
2022/09/16 22:24:46;;;;;;;11.77;4.07;;;;;;;;;;10152398;29;20024;-77
2022/09/16 22:29:46;;;;;;;11.27;5.10;;;;;;;;;;10167976;29;20028;-81
2022/09/16 22:34:46;;;;;;;12.68;4.70;;;;;;;;;;10151312;29;20036;-78
2022/09/16 22:39:47;;;;;;;11.70;4.15;;;;;;;;;;10151262;29;20155;-80
2022/09/16 22:44:47;;;;;;;13.23;4.60;;;;;;;;;;10185440;29;20035;-76
2022/09/16 22:49:47;;;;;;;10.48;5.15;;;;;;;;;;10160106;29;20111;-76
2022/09/16 22:54:47;;;;;;;14.95;8.20;;;;;;;;;;10151219;29;20052;-78
2022/09/16 22:59:48;;;;;;;14.53;6.20;;;;;;;;;;10167832;29;20028;-77
2022/09/16 23:04:48;;;;;;;13.05;7.18;;;;;;;;;;10151014;29;20413;-75
2022/09/16 23:09:48;;;;;;;15.05;6.95;;;;;;;;;;10170201;29;20098;-75
2022/09/16 23:14:48;;;;;;;17.83;7.40;;;;;;;;;;10195868;29;20509;-79
2022/09/16 23:19:49;;;;;;;16.33;6.90;;;;;;;;;;10201133;29;20530;-74
2022/09/16 23:24:49;;;;;;;14.05;7.10;;;;;;;;;;10220774;29;20027;-81
2022/09/16 23:29:49;;;;;;;13.75;6.78;;;;;;;;;;10208461;28;20055;-72
2022/09/16 23:34:50;;;;;;;16.50;6.72;;;;;;;;;;10188537;29;20028;-78
2022/09/16 23:39:50;;;;;;;20.90;6.23;;;;;;;;;;10210185;29;20082;-77
2022/09/16 23:44:50;;;;;;;14.60;6.30;;;;;;;;;;10208610;29;20032;-73
2022/09/16 23:49:52;;;;;;;17.48;6.38;;;;;;;;;;10188826;29;20522;-78
2022/09/16 23:54:52;;;;;;;14.57;6.43;;;;;;;;;;10204404;29;20059;-79
2022/09/16 23:59:52;;;;;;;12.32;6.15;;;;;;;;;;10187864;29;20115;-75
